createdAt,value
2018-04-10T00:35:19.676Z,5.33
2018-04-10T00:36:21.136Z,3.80
2018-04-10T00:37:23.322Z,6.70
2018-04-10T00:38:24.804Z,3.83
2018-04-10T00:39:26.261Z,3.37
2018-04-10T00:40:28.597Z,4.00
2018-04-10T00:41:30.136Z,3.87
2018-04-10T00:42:32.344Z,3.70
2018-04-10T00:43:33.788Z,3.60
2018-04-10T00:44:35.970Z,6.63
2018-04-10T00:45:37.440Z,3.73
2018-04-10T00:46:38.891Z,4.20
2018-04-10T00:47:41.088Z,3.07
2018-04-10T00:48:43.266Z,4.77
2018-04-10T00:49:46.197Z,4.23
2018-04-10T00:50:47.991Z,4.57
2018-04-10T00:51:49.432Z,3.00
2018-04-10T00:52:52.447Z,3.70
2018-04-10T00:53:54.629Z,2.90
2018-04-10T00:54:56.065Z,4.07
2018-04-10T00:55:58.843Z,4.37
2018-04-10T00:57:00.345Z,4.80
2018-04-10T00:58:01.799Z,3.57
2018-04-10T00:59:03.257Z,4.10
2018-04-10T01:00:04.723Z,2.87
2018-04-10T01:01:07.953Z,3.80
2018-04-10T01:02:10.165Z,2.97
2018-04-10T01:03:11.624Z,2.80
2018-04-10T01:04:13.144Z,4.20
2018-04-10T01:05:14.616Z,4.87
2018-04-10T01:06:16.115Z,3.00
2018-04-10T01:07:18.320Z,3.70
2018-04-10T01:08:19.757Z,4.87
2018-04-10T01:09:21.956Z,3.97
2018-04-10T01:10:23.405Z,3.50
2018-04-10T01:11:25.128Z,3.00
2018-04-10T01:12:27.331Z,3.93
2018-04-10T01:13:28.845Z,3.00
2018-04-10T01:14:31.063Z,2.70
2018-04-10T01:15:32.508Z,2.83
2018-04-10T01:16:34.323Z,3.50
2018-04-10T01:17:36.526Z,4.80
2018-04-10T01:18:38.011Z,3.20
2018-04-10T01:19:39.471Z,4.53
2018-04-10T01:20:40.933Z,4.47
2018-04-10T01:21:42.712Z,3.33
2018-04-10T01:22:45.874Z,3.60
2018-04-10T01:23:47.325Z,4.03
2018-04-10T01:24:48.799Z,3.23
2018-04-10T01:25:51.369Z,3.73
2018-04-10T01:26:52.837Z,4.70
2018-04-10T01:27:55.037Z,3.00
2018-04-10T01:28:56.489Z,3.23
2018-04-10T01:29:58.359Z,3.60
2018-04-10T01:31:01.321Z,3.67
2018-04-10T01:32:02.849Z,3.30
2018-04-10T01:33:05.054Z,2.57
2018-04-10T01:34:06.543Z,4.53
2018-04-10T01:35:09.698Z,5.10
2018-04-10T01:36:11.249Z,2.70
2018-04-10T01:37:13.077Z,4.07
2018-04-10T01:38:16.232Z,4.40
2018-04-10T01:39:17.679Z,3.73
2018-04-10T01:40:19.135Z,2.97
2018-04-10T01:41:20.579Z,3.63
2018-04-10T01:42:22.045Z,2.90
2018-04-10T01:43:23.505Z,3.23
2018-04-10T01:44:24.955Z,4.33
2018-04-10T01:45:26.425Z,2.77
2018-04-10T01:46:28.723Z,4.43
2018-04-10T01:47:31.319Z,2.93
2018-04-10T01:48:32.776Z,5.00
2018-04-10T01:49:34.237Z,5.13
2018-04-10T01:50:35.691Z,5.53
2018-04-10T01:51:37.875Z,4.00
2018-04-10T01:52:39.596Z,2.53
2018-04-10T01:53:41.054Z,2.77
2018-04-10T01:54:42.505Z,2.87
2018-04-10T01:55:43.963Z,4.57
2018-04-10T01:56:45.430Z,3.13
2018-04-10T01:57:46.888Z,3.00
2018-04-10T01:58:48.332Z,3.67
2018-04-10T01:59:49.800Z,2.47
2018-04-10T02:00:51.280Z,2.87
2018-04-10T02:01:53.489Z,3.33
2018-04-10T02:02:55.200Z,3.43
2018-04-10T02:03:57.406Z,2.97
2018-04-10T02:04:58.877Z,5.50
2018-04-10T02:06:00.375Z,3.17
2018-04-10T02:07:02.558Z,2.90
2018-04-10T02:08:04.068Z,4.43
2018-04-10T02:09:05.599Z,2.70
2018-04-10T02:10:31.652Z,2.20
2018-04-10T02:11:57.760Z,3.00
2018-04-10T02:13:01.180Z,2.40
2018-04-10T02:14:03.416Z,3.23
2018-04-10T02:15:04.917Z,2.40
2018-04-10T02:16:06.404Z,3.37
2018-04-10T02:17:07.884Z,3.00
2018-04-10T02:18:09.361Z,3.97
2018-04-10T02:19:10.892Z,5.27
2018-04-10T02:20:12.357Z,3.53
2018-04-10T02:21:13.836Z,3.60
2018-04-10T02:22:16.057Z,2.93
2018-04-10T02:23:17.520Z,2.70
2018-04-10T02:24:19.756Z,3.27
2018-04-10T02:25:21.243Z,3.17
2018-04-10T02:26:22.733Z,4.20
2018-04-10T02:27:25.912Z,3.30
2018-04-10T02:28:27.389Z,4.13
2018-04-10T02:29:29.651Z,3.00
2018-04-10T02:30:31.905Z,5.33
2018-04-10T02:31:33.397Z,5.67
2018-04-10T02:32:36.092Z,4.33
2018-04-10T02:33:37.577Z,3.20
2018-04-10T02:34:39.342Z,4.03
2018-04-10T02:35:40.817Z,2.90
2018-04-10T02:36:43.029Z,3.73
2018-04-10T02:37:44.505Z,3.07
2018-04-10T02:38:46.733Z,2.90
2018-04-10T02:39:48.290Z,5.17
2018-04-10T02:40:49.769Z,3.53
2018-04-10T02:41:51.277Z,3.23
2018-04-10T02:42:53.502Z,4.10
2018-04-10T02:43:54.977Z,3.13
2018-04-10T02:44:56.729Z,5.87
2018-04-10T02:45:58.206Z,3.20
2018-04-10T02:47:01.188Z,3.67
2018-04-10T02:48:03.425Z,4.33
2018-04-10T02:49:04.924Z,3.57
2018-04-10T02:50:07.186Z,3.73
2018-04-10T02:51:09.413Z,3.00
2018-04-10T02:52:10.900Z,3.83
2018-04-10T02:53:13.125Z,2.90
2018-04-10T02:54:14.638Z,2.97
2018-04-10T02:55:16.157Z,4.33
2018-04-10T02:56:19.392Z,4.13
2018-04-10T02:57:20.884Z,3.03
2018-04-10T02:58:23.141Z,4.47
2018-04-10T02:59:24.621Z,3.57
2018-04-10T03:00:26.127Z,2.83
2018-04-10T03:01:27.597Z,3.77
2018-04-10T03:12:15.825Z,3.17
2018-04-10T03:13:17.380Z,4.07
2018-04-10T03:14:18.857Z,2.37
2018-04-10T03:15:21.091Z,3.03
2018-04-10T03:16:22.617Z,4.33
2018-04-10T03:17:24.395Z,2.50
2018-04-10T03:18:25.887Z,4.07
2018-04-10T03:19:28.167Z,2.80
2018-04-10T03:20:31.133Z,3.97
2018-04-10T03:21:32.621Z,2.67
2018-04-10T03:22:34.397Z,2.57
2018-04-10T03:23:35.874Z,3.67
2018-04-10T03:24:37.356Z,4.40
2018-04-10T03:25:38.837Z,4.17
2018-04-10T03:26:40.424Z,3.73
2018-04-10T03:27:42.233Z,3.50
2018-04-10T03:28:45.422Z,5.33
2018-04-10T03:29:47.659Z,3.30
2018-04-10T03:30:49.131Z,3.60
2018-04-10T03:31:50.604Z,2.80
2018-04-10T03:32:52.940Z,2.50
2018-04-10T03:33:54.428Z,3.30
2018-04-10T03:34:56.645Z,2.97
2018-04-10T03:35:58.174Z,3.93
2018-04-10T03:36:59.667Z,3.67
2018-04-10T03:38:01.188Z,3.43
2018-04-10T03:39:02.743Z,3.37
2018-04-10T03:40:04.241Z,2.80
2018-04-10T03:41:07.215Z,4.37
2018-04-10T03:42:08.684Z,3.33
2018-04-10T03:43:10.186Z,6.50
2018-04-10T03:44:11.644Z,3.07
2018-04-10T03:45:13.118Z,2.43
2018-04-10T03:46:14.599Z,2.53
2018-04-10T03:47:17.551Z,2.47
2018-04-10T03:48:19.821Z,2.93
2018-04-10T03:49:21.303Z,4.13
2018-04-10T03:50:22.785Z,2.93
2018-04-10T03:51:24.289Z,2.50
2018-04-10T03:52:26.129Z,3.23
2018-04-10T03:53:27.630Z,4.17
2018-04-10T03:54:54.403Z,4.50
2018-04-10T03:56:20.466Z,6.03
2018-04-10T03:57:25.959Z,4.07
2018-04-10T03:58:29.139Z,3.70
2018-04-10T03:59:31.345Z,4.07
2018-04-10T04:00:32.819Z,5.10
2018-04-10T04:01:34.273Z,2.87
2018-04-10T04:02:35.739Z,3.40
2018-04-10T04:03:37.952Z,5.00
2018-04-10T04:04:40.884Z,3.03
2018-04-10T04:05:42.327Z,3.90
2018-04-10T04:06:43.775Z,3.83
2018-04-10T04:07:45.973Z,4.17
2018-04-10T04:08:47.437Z,3.47
2018-04-10T04:09:48.895Z,3.13
2018-04-10T04:10:51.092Z,3.17
2018-04-10T04:11:52.578Z,3.90
2018-04-10T04:12:54.076Z,5.60
2018-04-10T04:13:56.315Z,7.70
2018-04-10T04:14:57.801Z,7.13
2018-04-10T04:16:01.004Z,4.63
2018-04-10T04:17:20.855Z,4.30
2018-04-10T04:18:40.630Z,6.77
2018-04-10T04:20:00.570Z,4.80
2018-04-10T04:21:20.415Z,4.40
2018-04-10T04:22:34.047Z,3.70
2018-04-10T04:23:35.501Z,3.87
2018-04-10T04:24:36.951Z,4.07
2018-04-10T04:25:38.437Z,4.13
2018-04-10T04:26:41.007Z,7.40
2018-04-10T04:27:43.201Z,6.13
2018-04-10T04:30:33.111Z,4.03
2018-04-10T04:31:34.579Z,5.53
2018-04-10T04:32:36.036Z,5.07
2018-04-10T04:33:37.565Z,3.77
2018-04-10T04:34:39.018Z,3.87
2018-04-10T04:35:40.471Z,5.27
2018-04-10T04:36:41.937Z,5.67
2018-04-10T04:37:44.141Z,5.00
2018-04-10T04:38:45.621Z,7.37
2018-04-10T04:39:47.808Z,12.10
2018-04-10T04:40:49.305Z,9.93
2018-04-10T04:41:51.101Z,7.83
2018-04-10T04:42:53.313Z,6.67
2018-04-10T04:43:54.761Z,5.40
2018-04-10T04:45:36.284Z,4.30
2018-04-10T04:46:38.551Z,7.13
2018-04-10T04:47:40.021Z,4.87
2018-04-10T04:50:05.601Z,5.23
2018-04-10T04:51:07.069Z,3.27
2018-04-10T04:52:08.525Z,4.43
2018-04-10T04:53:09.989Z,3.13
2018-04-10T04:54:11.531Z,3.60
2018-04-10T04:55:12.980Z,4.77
2018-04-10T04:56:14.437Z,2.83
2018-04-10T04:57:15.905Z,2.40
2018-04-10T04:58:17.684Z,3.77
2018-04-10T04:59:19.125Z,2.83
2018-04-10T05:00:20.593Z,4.83
2018-04-10T05:01:49.252Z,3.97
2018-04-10T05:02:50.745Z,3.70
2018-04-10T05:03:52.965Z,4.30
2018-04-10T05:04:54.489Z,4.57
2018-04-10T05:05:55.970Z,4.73
2018-04-10T05:06:57.423Z,5.90
2018-04-10T05:07:58.890Z,4.10
2018-04-10T05:09:00.428Z,6.00
2018-04-10T05:10:01.882Z,3.93
2018-04-10T05:11:03.375Z,3.97
2018-04-10T05:12:05.949Z,4.70
2018-04-10T05:13:07.396Z,6.50
2018-04-10T05:14:08.861Z,10.27
2018-04-10T05:15:11.057Z,10.60
2018-04-10T05:16:12.517Z,8.17
2018-04-10T05:17:13.977Z,5.87
2018-04-10T05:18:15.449Z,4.27
2018-04-10T05:19:16.945Z,3.00
2018-04-10T05:20:19.233Z,4.20
2018-04-10T05:21:20.692Z,3.10
2018-04-10T05:22:22.177Z,3.87
2018-04-10T05:23:23.636Z,3.07
2018-04-10T05:24:25.869Z,3.60
2018-04-10T05:25:27.338Z,2.73
2018-04-10T05:26:28.825Z,3.90
2018-04-10T05:27:30.317Z,3.23
2018-04-10T05:28:31.773Z,4.70
2018-04-10T05:29:33.273Z,3.63
2018-04-10T05:30:34.753Z,4.57
2018-04-10T05:31:37.915Z,2.80
2018-04-10T05:32:39.365Z,2.50
2018-04-10T05:33:40.904Z,3.63
2018-04-10T05:34:42.689Z,4.03
2018-04-10T05:35:45.863Z,3.23
2018-04-10T05:36:47.363Z,4.23
2018-04-10T05:37:50.508Z,3.43
2018-04-10T05:38:51.967Z,2.80
2018-04-10T05:39:53.697Z,4.73
2018-04-10T05:40:55.157Z,3.67
2018-04-10T05:41:56.681Z,11.63
2018-04-10T05:42:59.847Z,5.97
2018-04-10T05:44:02.065Z,5.43
2018-04-10T05:45:03.861Z,3.27
2018-04-10T05:46:05.315Z,3.00
2018-04-10T05:47:07.107Z,4.60
2018-04-10T05:48:09.794Z,4.13
2018-04-10T05:49:12.315Z,2.90
2018-04-10T05:51:34.299Z,2.63
2018-04-10T05:52:36.954Z,3.03
2018-04-10T05:53:38.875Z,2.50
2018-04-10T05:54:40.729Z,3.00
2018-04-10T05:57:03.137Z,2.80
2018-04-10T05:59:27.294Z,5.83
2018-04-10T06:01:22.275Z,2.60
2018-04-10T06:02:24.526Z,3.10
2018-04-10T06:03:28.100Z,2.60
2018-04-10T06:04:32.601Z,2.90
2018-04-10T06:07:44.317Z,3.00
2018-04-10T06:08:46.988Z,3.73
2018-04-10T06:09:48.918Z,9.00
2018-04-10T06:10:52.472Z,4.47
2018-04-10T06:11:54.353Z,5.93
2018-04-10T06:12:56.217Z,5.33
2018-04-10T06:14:16.620Z,3.73
2018-04-10T06:15:19.896Z,2.83
2018-04-10T06:16:21.615Z,2.90
2018-04-10T06:17:24.910Z,3.60
2018-04-10T06:19:49.849Z,2.80
2018-04-10T06:27:37.565Z,2.93
2018-04-10T06:38:53.642Z,4.63
2018-04-10T06:39:57.431Z,3.57
2018-04-10T06:40:59.882Z,2.63
2018-04-10T06:42:01.464Z,2.57
2018-04-10T06:43:03.934Z,2.40
2018-04-10T06:44:07.208Z,2.60
2018-04-10T06:45:08.799Z,2.73
2018-04-10T06:46:11.776Z,2.50
2018-04-10T06:47:13.294Z,2.63
2018-04-10T06:48:14.806Z,2.40
2018-04-10T06:49:16.558Z,3.33
2018-04-10T06:50:19.660Z,2.43
2018-04-10T06:51:23.047Z,2.20
2018-04-10T06:52:24.628Z,2.67
2018-04-10T06:59:40.138Z,4.33
2018-04-10T07:00:41.908Z,3.07
2018-04-10T07:05:53.948Z,4.30
2018-04-10T07:06:55.707Z,2.73
2018-04-10T07:09:31.970Z,3.00
2018-04-10T07:14:20.130Z,2.57
2018-04-10T07:17:56.545Z,2.93
2018-04-10T07:18:58.528Z,3.30
2018-04-10T07:20:01.807Z,3.07
2018-04-10T07:21:03.419Z,3.10
2018-04-10T07:22:06.608Z,3.43
2018-04-10T07:23:09.777Z,2.87
2018-04-10T07:37:23.406Z,5.63
2018-04-10T07:38:26.620Z,3.40
2018-04-10T07:39:28.940Z,3.73
2018-04-10T07:42:14.624Z,4.47
2018-04-10T07:43:18.018Z,4.73
2018-04-10T07:48:12.042Z,2.30
2018-04-10T07:49:15.631Z,3.73
2018-04-10T07:51:37.992Z,2.07
2018-04-10T07:52:39.713Z,5.30
2018-04-10T08:01:26.755Z,2.43
2018-04-10T08:02:28.629Z,2.30
2018-04-10T08:03:31.240Z,2.50
2018-04-10T08:05:10.725Z,2.80
2018-04-10T08:07:34.223Z,2.67
2018-04-10T08:08:37.607Z,2.17
2018-04-10T08:09:41.012Z,2.27
2018-04-10T08:10:44.488Z,1.90
2018-04-10T08:11:46.225Z,3.53
2018-04-10T08:12:47.954Z,2.60
2018-04-10T08:13:49.724Z,3.30
2018-04-10T08:17:01.376Z,2.93
2018-04-10T08:18:03.150Z,2.17
2018-04-10T08:19:06.603Z,2.40
2018-04-10T08:20:09.922Z,2.00
2018-04-10T08:21:11.668Z,2.17
2018-04-10T08:23:32.791Z,2.70
2018-04-10T08:29:34.890Z,5.33
2018-04-10T08:30:38.093Z,2.10
2018-04-10T08:32:01.167Z,3.10
2018-04-10T08:33:38.212Z,2.73
2018-04-10T08:34:41.618Z,1.97
2018-04-10T08:35:45.112Z,1.87
2018-04-10T08:36:48.587Z,3.10
2018-04-10T08:37:51.950Z,2.87
2018-04-10T08:38:53.810Z,2.93
2018-04-10T08:39:56.568Z,1.97
2018-04-10T08:41:29.058Z,2.20
2018-04-10T08:44:26.404Z,2.03
2018-04-10T08:45:29.400Z,3.33
2018-04-10T08:46:31.197Z,2.57
2018-04-10T08:47:33.019Z,2.00
2018-04-10T08:48:36.346Z,2.30
2018-04-10T08:50:26.672Z,1.60
2018-04-10T08:52:46.525Z,2.93
2018-04-10T08:53:48.379Z,2.63
2018-04-10T08:54:51.339Z,2.33
2018-04-10T08:57:12.881Z,1.90
2018-04-10T09:03:25.507Z,1.93
2018-04-10T09:11:48.506Z,1.60
2018-04-10T09:14:36.504Z,1.60
2018-04-10T09:15:38.327Z,3.40
2018-04-10T09:16:41.073Z,2.83
2018-04-10T09:18:21.226Z,1.67
2018-04-10T09:19:23.014Z,1.60
2018-04-10T09:20:24.841Z,3.13
2018-04-10T09:21:29.272Z,2.40
2018-04-10T09:22:32.750Z,3.97
2018-04-10T09:23:36.282Z,2.13
2018-04-10T09:24:38.188Z,2.60
2018-04-10T09:25:40.052Z,1.50
2018-04-10T09:26:43.354Z,2.33
2018-04-10T09:27:46.268Z,2.17
2018-04-10T09:28:48.428Z,2.60
2018-04-10T09:35:32.692Z,4.17
2018-04-10T09:41:51.434Z,1.73
2018-04-10T09:45:28.545Z,1.70
2018-04-10T09:47:06.082Z,1.97
2018-04-10T09:55:12.150Z,1.63
2018-04-10T09:56:30.852Z,2.40
2018-04-10T09:59:23.488Z,1.70
2018-04-10T10:00:32.915Z,1.63
2018-04-10T10:01:36.349Z,2.47
2018-04-10T10:02:38.129Z,2.07
2018-04-10T10:04:03.354Z,1.50
2018-04-10T10:05:06.830Z,1.70
2018-04-10T10:06:36.807Z,2.33
2018-04-10T10:12:43.213Z,4.37
2018-04-10T10:28:14.402Z,1.57
2018-04-10T10:29:16.264Z,1.47
2018-04-10T10:31:36.788Z,1.70
2018-04-10T10:32:53.879Z,1.30
2018-04-10T10:33:55.791Z,1.83
2018-04-10T10:35:46.452Z,1.30
2018-04-10T10:41:53.477Z,13.40
2018-04-10T10:42:56.457Z,3.23
2018-04-10T10:43:58.269Z,6.27
2018-04-10T10:45:00.125Z,3.37
2018-04-10T10:46:02.026Z,2.53
2018-04-10T10:47:04.653Z,2.07
2018-04-10T10:48:06.527Z,2.33
2018-04-10T10:49:09.431Z,3.33
2018-04-10T10:50:12.871Z,1.50
2018-04-10T10:51:16.653Z,3.10
2018-04-10T10:52:20.095Z,3.30
2018-04-10T10:53:21.963Z,1.20
2018-04-10T10:54:24.550Z,1.50
2018-04-10T10:55:26.382Z,3.07
2018-04-10T10:56:28.835Z,2.03
2018-04-10T10:57:32.334Z,5.83
2018-04-10T10:58:35.718Z,1.67
2018-04-10T11:01:35.984Z,1.40
2018-04-10T11:02:39.472Z,3.43
2018-04-10T11:03:42.509Z,1.10
2018-04-10T11:04:44.403Z,2.17
2018-04-10T11:05:46.336Z,3.53
2018-04-10T11:06:48.278Z,1.90
2018-04-10T11:07:51.895Z,2.30
2018-04-10T11:14:45.362Z,2.33
2018-04-10T11:22:16.448Z,2.70
2018-04-10T11:23:18.280Z,1.50
2018-04-10T11:24:21.602Z,2.70
2018-04-10T11:27:40.226Z,2.83
2018-04-10T11:28:43.667Z,3.93
2018-04-10T11:29:45.579Z,1.70
2018-04-10T11:30:49.013Z,1.47
2018-04-10T11:32:45.748Z,1.00
2018-04-10T11:33:49.196Z,3.53
2018-04-10T11:34:51.409Z,1.10
2018-04-10T11:36:08.878Z,1.63
2018-04-10T11:38:49.835Z,0.83
2018-04-10T11:39:53.254Z,2.80
2018-04-10T11:40:56.613Z,3.17
2018-04-10T11:41:58.522Z,1.10
2018-04-10T11:43:01.982Z,1.53
2018-04-10T11:46:06.832Z,0.97
2018-04-10T11:47:08.372Z,1.37
2018-04-10T11:50:57.096Z,2.67
2018-04-10T11:51:59.008Z,1.47
2018-04-10T11:53:01.685Z,1.63
2018-04-10T11:54:05.165Z,2.30
2018-04-10T11:55:07.726Z,1.87
2018-04-10T11:59:12.793Z,2.17
2018-04-10T12:12:00.387Z,1.57
2018-04-10T12:13:03.879Z,1.00
2018-04-10T12:14:06.887Z,2.70
2018-04-10T12:15:08.764Z,1.90
2018-04-10T12:16:12.245Z,2.67
2018-04-10T12:17:14.837Z,1.33
2018-04-10T12:18:16.700Z,1.37
2018-04-10T12:19:20.257Z,2.20
2018-04-10T12:20:23.805Z,1.90
2018-04-10T12:21:27.349Z,1.00
2018-04-10T12:22:29.272Z,1.90
2018-04-10T12:23:32.655Z,1.20
2018-04-10T12:24:36.010Z,1.40
2018-04-10T12:25:37.817Z,1.53
2018-04-10T12:26:41.284Z,1.20
2018-04-10T12:27:44.769Z,2.47
2018-04-10T12:28:46.713Z,1.30
2018-04-10T12:29:48.525Z,2.30
2018-04-10T12:32:19.697Z,2.20
2018-04-10T12:33:23.059Z,1.13
2018-04-10T12:34:26.388Z,1.00
2018-04-10T12:35:29.139Z,1.03
2018-04-10T12:36:30.961Z,1.30
2018-04-10T12:37:52.017Z,2.23
2018-04-10T12:38:53.889Z,1.30
2018-04-10T12:41:52.023Z,1.80
2018-04-10T12:42:53.769Z,2.67
2018-04-10T12:43:57.460Z,1.70
2018-04-10T12:47:38.645Z,1.40
2018-04-10T12:48:41.056Z,1.50
2018-04-10T12:49:42.913Z,1.00
2018-04-10T12:50:44.775Z,1.00
2018-04-10T12:53:22.560Z,1.10
2018-04-10T12:54:26.077Z,0.83
2018-04-10T12:56:44.912Z,1.00
2018-04-10T12:57:46.678Z,2.63
2018-04-10T13:00:53.283Z,3.07
2018-04-10T13:01:56.806Z,1.17
2018-04-10T13:02:58.717Z,1.57
2018-04-10T13:04:02.040Z,1.43
2018-04-10T13:05:03.878Z,1.40
2018-04-10T13:06:05.747Z,1.00
2018-04-10T13:07:07.739Z,1.10
2018-04-10T13:08:11.107Z,2.43
2018-04-10T13:15:25.947Z,2.87
2018-04-10T13:16:29.258Z,0.90
2018-04-10T13:17:32.672Z,2.30
2018-04-10T13:18:36.262Z,1.20
2018-04-10T13:19:39.683Z,1.63
2018-04-10T13:20:43.036Z,1.10
2018-04-10T13:25:09.810Z,1.00
2018-04-10T13:27:10.827Z,1.13
2018-04-10T13:28:12.645Z,1.00
2018-04-10T13:29:16.261Z,2.83
2018-04-10T13:30:19.669Z,1.97
2018-04-10T13:31:23.229Z,1.30
2018-04-10T13:32:25.052Z,2.00
2018-04-10T13:33:28.515Z,0.80
2018-04-10T13:34:31.172Z,1.13
2018-04-10T13:35:33.003Z,1.70
2018-04-10T13:36:34.853Z,0.90
2018-04-10T13:37:38.591Z,1.30
2018-04-10T13:38:42.035Z,2.87
2018-04-10T13:41:33.452Z,2.07
2018-04-10T13:42:35.986Z,2.37
2018-04-10T13:43:39.495Z,1.53
2018-04-10T13:44:41.396Z,1.90
2018-04-10T13:45:43.215Z,1.70
2018-04-10T13:46:46.720Z,1.53
2018-04-10T13:47:48.641Z,1.70
2018-04-10T13:50:13.331Z,2.27
2018-04-10T13:51:16.761Z,1.70
2018-04-10T13:52:20.274Z,2.20
2018-04-10T13:53:22.181Z,1.30
2018-04-10T13:54:24.329Z,1.03
2018-04-10T13:56:47.755Z,2.20
2018-04-10T13:59:05.059Z,2.00
2018-04-10T14:00:08.554Z,1.03
2018-04-10T14:01:10.408Z,0.93
2018-04-10T14:02:13.182Z,1.00
2018-04-10T14:04:04.830Z,1.27
2018-04-10T14:05:08.304Z,1.50
2018-04-10T14:06:11.712Z,1.53
2018-04-10T14:07:13.517Z,1.33
2018-04-10T14:08:15.242Z,3.23
2018-04-10T14:11:12.173Z,1.37
2018-04-10T14:12:15.755Z,1.20
2018-04-10T14:13:19.298Z,0.97
2018-04-10T14:14:22.378Z,3.17
2018-04-10T14:15:25.870Z,1.23
2018-04-10T14:17:48.099Z,0.87
2018-04-10T14:21:26.865Z,3.17
2018-04-10T14:22:48.664Z,1.10
2018-04-10T14:26:57.863Z,1.33
2018-04-10T14:33:11.937Z,3.67
2018-04-10T14:38:53.040Z,2.90
2018-04-10T14:39:56.503Z,1.00
2018-04-10T14:40:58.313Z,3.33
2018-04-10T14:42:22.404Z,1.97
2018-04-10T14:43:24.254Z,2.43
2018-04-10T14:44:26.176Z,1.43
2018-04-10T14:45:28.036Z,2.60
2018-04-10T14:46:29.911Z,1.43
2018-04-10T14:47:33.336Z,2.27
2018-04-10T14:48:36.933Z,1.30
2018-04-10T14:49:40.388Z,3.70
2018-04-10T14:50:42.211Z,1.00
2018-04-10T14:53:04.194Z,1.00
2018-04-10T14:54:07.742Z,1.27
2018-04-10T14:55:11.236Z,1.43
2018-04-10T14:56:14.709Z,2.43
2018-04-10T14:57:34.844Z,1.20
2018-04-10T14:58:37.496Z,2.20
2018-04-10T15:01:45.414Z,1.47
2018-04-10T15:02:48.699Z,2.73
2018-04-10T15:03:51.857Z,3.07
2018-04-10T15:04:55.027Z,6.07
2018-04-10T15:05:58.353Z,4.00
2018-04-10T15:08:38.249Z,6.30
2018-04-10T15:09:41.476Z,1.20
2018-04-10T15:10:43.239Z,0.97
2018-04-10T15:11:46.678Z,1.17
2018-04-10T15:12:50.062Z,1.00
2018-04-10T15:14:15.790Z,1.37
2018-04-10T15:15:19.221Z,0.80
2018-04-10T15:16:20.973Z,1.83
2018-04-10T15:17:22.758Z,1.50
2018-04-10T15:18:26.139Z,1.13
2018-04-10T15:19:59.153Z,1.03
2018-04-10T15:22:22.007Z,1.77
2018-04-10T15:23:25.348Z,1.40
2018-04-10T15:24:28.760Z,2.40
2018-04-10T15:25:31.190Z,2.40
2018-04-10T15:26:32.864Z,1.27
2018-04-10T15:27:36.336Z,3.40
2018-04-10T15:28:37.977Z,1.07
2018-04-10T15:29:41.371Z,2.00
2018-04-10T15:30:43.072Z,1.10
2018-04-10T15:31:44.805Z,1.17
2018-04-10T15:32:46.459Z,1.10
2018-04-10T15:33:48.153Z,1.63
2018-04-10T15:34:51.343Z,1.20
2018-04-10T15:35:54.843Z,1.00
2018-04-10T15:36:57.281Z,1.10
2018-04-10T15:40:07.120Z,1.23
2018-04-10T15:41:08.764Z,1.47
2018-04-10T15:44:21.674Z,1.63
2018-04-10T15:45:25.076Z,1.30
2018-04-10T15:47:45.638Z,1.77
2018-04-10T15:50:04.678Z,1.33
2018-04-10T15:51:08.108Z,0.80
2018-04-10T15:52:11.482Z,3.17
2018-04-10T15:53:14.874Z,1.33
2018-04-10T15:54:18.245Z,0.90
2018-04-10T15:55:21.492Z,2.67
2018-04-10T15:59:22.413Z,1.13
2018-04-10T16:00:24.237Z,1.77
2018-04-10T16:01:27.746Z,3.73
2018-04-10T16:02:29.502Z,0.80
2018-04-10T16:03:31.226Z,1.57
2018-04-10T16:04:34.654Z,0.87
2018-04-10T16:05:36.312Z,0.80
2018-04-10T16:06:38.120Z,1.03
2018-04-10T16:07:41.520Z,1.57
2018-04-10T16:08:43.254Z,1.10
2018-04-10T16:09:45.030Z,1.70
2018-04-10T16:10:48.426Z,1.33
2018-04-10T16:11:50.127Z,1.10
2018-04-10T16:12:53.542Z,2.57
2018-04-10T16:13:55.322Z,1.63
2018-04-10T16:14:58.789Z,2.00
2018-04-10T16:16:00.573Z,0.73
2018-04-10T16:17:02.349Z,1.50
2018-04-10T16:18:04.099Z,1.47
2018-04-10T16:19:07.515Z,1.10
2018-04-10T16:20:09.294Z,1.77
2018-04-10T16:21:10.976Z,1.97
2018-04-10T16:22:14.382Z,2.60
2018-04-10T16:23:16.189Z,1.00
2018-04-10T16:24:18.113Z,1.73
2018-04-10T16:25:21.691Z,1.47
2018-04-10T16:26:25.108Z,1.50
2018-04-10T16:27:29.345Z,2.57
2018-04-10T16:30:14.648Z,1.80
2018-04-10T16:35:53.853Z,2.73
2018-04-10T16:36:55.590Z,1.73
2018-04-10T16:37:58.981Z,1.23
2018-04-10T16:39:02.410Z,1.27
2018-04-10T16:40:05.638Z,1.27
2018-04-10T16:41:08.890Z,1.73
2018-04-10T16:42:12.251Z,0.93
2018-04-10T16:43:15.563Z,1.13
2018-04-10T16:44:18.948Z,1.13
2018-04-10T16:45:20.660Z,2.30
2018-04-10T16:46:24.088Z,0.80
2018-04-10T16:47:27.497Z,1.83
2018-04-10T16:48:30.980Z,3.30
2018-04-10T16:49:33.485Z,1.33
2018-04-10T16:50:36.983Z,2.00
2018-04-10T16:51:38.779Z,1.70
2018-04-10T16:52:41.606Z,0.93
2018-04-10T16:53:44.955Z,0.83
2018-04-10T16:54:48.294Z,2.23
2018-04-10T16:55:49.992Z,1.50
2018-04-10T16:56:51.811Z,1.47
2018-04-10T16:57:55.240Z,3.47
2018-04-10T16:58:59.640Z,1.43
2018-04-10T17:00:02.865Z,1.33
2018-04-10T17:01:04.675Z,2.20
2018-04-10T17:02:06.567Z,1.00
2018-04-10T17:03:08.760Z,1.97
2018-04-10T17:04:10.568Z,1.17
2018-04-10T17:05:12.388Z,1.20
2018-04-10T17:06:14.142Z,1.00
2018-04-10T17:09:51.730Z,1.07
2018-04-10T17:10:53.422Z,1.00
2018-04-10T17:12:20.718Z,1.47
2018-04-10T17:13:22.246Z,2.10
2018-04-10T17:14:25.408Z,2.07
2018-04-10T17:15:29.885Z,3.10
2018-04-10T17:16:31.419Z,2.80
2018-04-10T17:17:33.798Z,2.00
2018-04-10T17:18:36.478Z,1.63
2018-04-10T17:20:22.858Z,1.10
2018-04-10T17:21:26.337Z,1.30
2018-04-10T17:22:28.028Z,1.20
2018-04-10T17:25:02.120Z,1.60
2018-04-10T17:26:05.574Z,1.60
2018-04-10T17:27:08.914Z,1.40
2018-04-10T17:28:10.803Z,1.20
2018-04-10T17:29:14.262Z,1.43
2018-04-10T17:30:43.276Z,2.57
2018-04-10T17:31:46.192Z,2.00
2018-04-10T17:32:47.751Z,1.50
2018-04-10T17:37:06.904Z,2.63
2018-04-10T17:39:30.475Z,3.10
2018-04-10T17:40:33.927Z,3.40
2018-04-10T17:41:37.422Z,4.27
2018-04-10T17:42:40.728Z,3.60
2018-04-10T17:43:43.243Z,2.70
2018-04-10T17:44:46.198Z,5.53
2018-04-10T17:45:49.624Z,7.23
2018-04-10T17:46:52.964Z,4.57
2018-04-10T17:47:56.193Z,8.80
2018-04-10T17:48:57.915Z,11.63
2018-04-10T17:49:59.622Z,9.90
2018-04-10T17:52:13.259Z,9.77
2018-04-10T17:53:16.715Z,6.23
2018-04-10T17:56:56.885Z,3.57
2018-04-10T17:58:00.327Z,4.10
2018-04-10T17:59:02.110Z,2.00
2018-04-10T18:00:05.556Z,2.33
2018-04-10T18:01:07.316Z,2.40
2018-04-10T18:03:53.213Z,1.83
2018-04-10T18:04:56.636Z,1.23
2018-04-10T18:05:59.104Z,3.93
2018-04-10T18:09:37.964Z,1.53
2018-04-10T18:10:41.120Z,2.50
2018-04-10T18:13:05.082Z,2.63
2018-04-10T18:15:25.624Z,2.67
2018-04-10T18:16:27.211Z,2.67
2018-04-10T18:17:28.808Z,3.47
2018-04-10T18:18:32.103Z,3.10
2018-04-10T18:19:33.748Z,3.73
2018-04-10T18:20:36.972Z,2.17
2018-04-10T18:21:38.476Z,2.53
2018-04-10T18:22:41.688Z,3.20
2018-04-10T18:23:44.885Z,2.43
2018-04-10T18:24:48.094Z,1.57
2018-04-10T18:25:51.369Z,2.37
2018-04-10T18:26:54.054Z,1.80
2018-04-10T18:27:57.046Z,1.50
2018-04-10T18:28:58.602Z,1.83
2018-04-10T18:30:00.083Z,1.50
2018-04-10T18:31:01.609Z,1.60
2018-04-10T18:32:03.213Z,3.93
2018-04-10T18:33:06.449Z,1.97
2018-04-10T18:34:07.978Z,1.97
2018-04-10T18:35:11.166Z,2.57
2018-04-10T18:36:14.425Z,2.53
2018-04-10T18:37:16.037Z,2.80
2018-04-10T18:38:17.554Z,3.27
2018-04-10T18:39:20.768Z,2.87
2018-04-10T18:40:23.981Z,1.50
2018-04-10T18:41:25.496Z,1.60
2018-04-10T18:42:28.724Z,1.40
2018-04-10T18:44:33.028Z,1.43
2018-04-10T18:45:36.050Z,2.10
2018-04-10T18:47:02.848Z,3.57
2018-04-10T18:48:06.044Z,1.50
2018-04-10T18:49:07.494Z,2.03
2018-04-10T18:50:08.992Z,1.40
2018-04-10T18:51:10.481Z,1.70
2018-04-10T18:52:13.910Z,1.83
2018-04-10T18:53:16.902Z,2.00
2018-04-10T18:54:20.073Z,3.83
2018-04-10T18:55:23.279Z,1.90
2018-04-10T18:56:25.888Z,2.40
2018-04-10T18:57:29.347Z,2.23
2018-04-10T18:58:32.566Z,3.37
2018-04-10T18:59:34.080Z,1.80
2018-04-10T19:00:35.584Z,2.67
2018-04-10T19:01:37.213Z,2.83
2018-04-10T19:02:38.752Z,2.80
2018-04-10T19:03:41.968Z,2.53
2018-04-10T19:04:45.120Z,1.50
2018-04-10T19:05:46.623Z,1.50
2018-04-10T19:06:49.819Z,1.67
2018-04-10T19:07:53.077Z,2.43
2018-04-10T19:08:56.278Z,1.60
2018-04-10T19:09:59.506Z,1.67
2018-04-10T19:11:01.022Z,2.50
2018-04-10T19:12:04.050Z,3.03
2018-04-10T19:13:06.334Z,2.13
2018-04-10T19:14:07.838Z,2.13
2018-04-10T19:15:10.461Z,2.47
2018-04-10T19:16:11.986Z,2.47
2018-04-10T19:17:15.254Z,3.13
2018-04-10T19:18:16.752Z,2.73
2018-04-10T19:19:18.284Z,3.10
2018-04-10T19:20:20.492Z,2.10
2018-04-10T19:21:23.436Z,2.20
2018-04-10T19:22:25.664Z,1.63
2018-04-10T19:23:27.153Z,2.13
2018-04-10T19:24:28.753Z,10.30
2018-04-10T19:25:30.274Z,16.50
2018-04-10T19:26:31.858Z,3.40
2018-04-10T19:27:33.386Z,3.20
2018-04-10T19:28:34.968Z,3.17
2018-04-10T19:29:37.230Z,4.00